Time;durP1;ratioP1;P1;durP2;ratioP2;P2;SDS_P1;SDS_P2;PMS_P1;PMS_P2;Temp;Humidity;BMP_temperature;BMP_pressure;BME280_temperature;BME280_humidity;BME280_pressure;Samples;Min_cycle;Max_cycle;Signal;HPM_P1;HPM_P2
2023/04/04 00:01:24;;;;;;;1999.90;999.90;;;3.40;99.90;;;;;;4938972;28;20405;-80
2023/04/04 00:03:51;;;;;;;1999.90;999.90;;;1.30;99.90;;;;;;4918290;29;20055;-84
2023/04/04 00:06:20;;;;;;;1999.90;999.90;;;0.40;99.90;;;;;;4933599;29;20051;-81
2023/04/04 00:08:46;;;;;;;1999.90;999.90;;;2.40;99.90;;;;;;4932262;29;20055;-80
2023/04/04 00:11:12;;;;;;;1999.90;999.90;;;1.00;99.90;;;;;;4921133;28;20047;-80
2023/04/04 00:13:39;;;;;;;1999.90;999.90;;;0.80;99.90;;;;;;4932738;29;20127;-80
2023/04/04 00:16:05;;;;;;;1999.90;999.90;;;3.00;99.90;;;;;;4934707;29;20043;-80
2023/04/04 00:18:31;;;;;;;1999.90;999.90;;;1.00;99.90;;;;;;4947502;29;20066;-80
2023/04/04 00:20:57;;;;;;;1999.90;999.90;;;1.60;99.90;;;;;;4936896;29;20508;-80
2023/04/04 00:23:23;;;;;;;1999.90;999.90;;;0.90;99.90;;;;;;4954041;29;20047;-80
2023/04/04 00:25:51;;;;;;;1999.90;999.90;;;-0.20;99.90;;;;;;4930551;29;20405;-80
2023/04/04 00:28:20;;;;;;;1999.90;999.90;;;1.30;99.90;;;;;;4934696;29;20059;-81
2023/04/04 00:30:47;;;;;;;1999.90;999.90;;;2.70;99.90;;;;;;4931111;29;20044;-79
2023/04/04 00:33:13;;;;;;;1999.90;999.90;;;0.60;99.90;;;;;;4916075;29;20493;-80
2023/04/04 00:35:40;;;;;;;1999.90;999.90;;;2.80;99.90;;;;;;4940335;29;20062;-80
2023/04/04 00:38:06;;;;;;;1999.90;999.90;;;0.60;99.90;;;;;;4952908;28;20571;-80
2023/04/04 00:40:39;;;;;;;1999.90;999.90;;;0.80;99.90;;;;;;4954445;28;20047;-82
2023/04/04 00:43:06;;;;;;;1999.90;999.90;;;0.10;99.90;;;;;;4952062;28;20083;-80
2023/04/04 00:45:33;;;;;;;1999.90;999.90;;;2.20;99.90;;;;;;4945453;28;20083;-80
2023/04/04 00:48:02;;;;;;;1999.90;999.90;;;1.80;99.90;;;;;;4927222;29;20087;-84
2023/04/04 00:50:27;;;;;;;1999.90;888.10;;;0.40;99.90;;;;;;4915945;29;20052;-81
2023/04/04 00:52:53;;;;;;;1999.90;999.90;;;3.00;99.90;;;;;;4933757;29;20066;-79
2023/04/04 00:55:19;;;;;;;1999.90;999.90;;;0.70;99.90;;;;;;4949471;28;20556;-82
2023/04/04 00:57:45;;;;;;;1999.90;999.90;;;1.20;99.90;;;;;;4952633;28;20050;-80
2023/04/04 01:00:14;;;;;;;1999.90;999.90;;;1.30;99.90;;;;;;4953190;28;20081;-80
2023/04/04 01:02:39;;;;;;;1999.90;999.90;;;0.70;99.90;;;;;;4954372;28;20055;-80
2023/04/04 01:05:06;;;;;;;1999.90;999.90;;;2.70;99.90;;;;;;4934918;29;20047;-80
2023/04/04 01:07:34;;;;;;;1999.90;999.90;;;0.60;99.90;;;;;;4947782;29;20047;-80
2023/04/04 01:10:01;;;;;;;1999.90;999.90;;;0.40;99.90;;;;;;4916276;29;20087;-86
2023/04/04 01:12:27;;;;;;;1999.90;999.90;;;0.60;99.90;;;;;;4927568;29;20059;-80
2023/04/04 01:14:53;;;;;;;1999.90;999.90;;;1.40;99.90;;;;;;4930116;29;20042;-81
2023/04/04 01:17:19;;;;;;;1999.90;999.90;;;0.70;99.90;;;;;;4930580;29;20130;-80
2023/04/04 01:20:03;;;;;;;1999.90;999.90;;;2.50;99.90;;;;;;4932293;28;20542;-80
2023/04/04 01:22:30;;;;;;;1999.90;999.90;;;0.60;99.90;;;;;;4941954;29;20075;-81
2023/04/04 01:24:57;;;;;;;1999.90;934.55;;;2.80;99.90;;;;;;4951949;28;20382;-80
2023/04/04 01:27:24;;;;;;;1999.90;999.90;;;2.80;99.90;;;;;;4942848;29;20142;-80
2023/04/04 01:29:50;;;;;;;1999.90;999.90;;;1.00;99.90;;;;;;4937394;28;20457;-80
2023/04/04 01:32:19;;;;;;;1999.90;999.90;;;0.90;99.90;;;;;;4929164;29;20048;-81
2023/04/04 01:34:52;;;;;;;1999.90;999.90;;;1.90;99.90;;;;;;4924770;29;20052;-81
2023/04/04 01:37:31;;;;;;;1999.90;999.90;;;0.50;99.90;;;;;;4941804;29;20059;-80
2023/04/04 01:40:05;;;;;;;1999.90;999.90;;;0.50;99.90;;;;;;4933301;29;20493;-81
2023/04/04 01:42:31;;;;;;;1999.90;999.90;;;2.10;99.90;;;;;;4949205;28;20091;-80
2023/04/04 01:44:57;;;;;;;1999.90;999.90;;;0.40;99.90;;;;;;4938213;29;20485;-80
2023/04/04 01:47:23;;;;;;;1999.90;999.90;;;-0.20;99.90;;;;;;4935148;29;20039;-80
2023/04/04 01:49:49;;;;;;;1999.90;999.90;;;1.40;99.90;;;;;;4949946;28;20047;-80
2023/04/04 01:52:15;;;;;;;1999.90;999.90;;;1.20;99.90;;;;;;4944579;28;20054;-80
2023/04/04 01:54:41;;;;;;;1999.90;999.90;;;1.00;99.90;;;;;;4938216;29;20191;-80
2023/04/04 01:57:07;;;;;;;1999.90;999.90;;;0.50;99.90;;;;;;4935777;29;20130;-85
2023/04/04 01:59:33;;;;;;;1999.90;999.90;;;0.40;99.90;;;;;;4946192;29;20052;-80
2023/04/04 02:01:58;;;;;;;1999.90;999.90;;;2.10;99.90;;;;;;4921824;29;20088;-80
2023/04/04 02:04:24;;;;;;;1999.90;999.90;;;;;;;;;;4937549;29;20083;-80
2023/04/04 02:06:51;;;;;;;1999.90;999.90;;;2.20;99.90;;;;;;4952632;29;20046;-80
2023/04/04 02:09:17;;;;;;;1999.90;999.90;;;0.60;99.90;;;;;;4952936;28;20055;-81
2023/04/04 02:11:43;;;;;;;1999.90;999.90;;;0.00;99.90;;;;;;4954216;28;20067;-81
2023/04/04 02:14:08;;;;;;;1999.90;999.90;;;-0.70;99.90;;;;;;4937035;29;20485;-85
2023/04/04 02:16:34;;;;;;;1999.90;999.90;;;0.20;99.90;;;;;;4933173;29;20130;-80
2023/04/04 02:19:00;;;;;;;1999.90;999.90;;;2.40;99.90;;;;;;4939639;29;20714;-81
2023/04/04 02:21:26;;;;;;;1999.90;999.90;;;0.30;99.90;;;;;;4936981;28;20047;-80
2023/04/04 02:23:52;;;;;;;1999.90;999.90;;;-0.10;99.90;;;;;;4936695;29;20409;-81
2023/04/04 02:26:18;;;;;;;1999.90;999.90;;;1.20;99.90;;;;;;4927571;29;20048;-81
2023/04/04 02:28:43;;;;;;;1999.90;999.90;;;3.10;99.90;;;;;;4937547;29;20055;-81
2023/04/04 02:31:10;;;;;;;1999.90;999.90;;;;;;;;;;4955953;28;20094;-85
2023/04/04 02:33:35;;;;;;;1999.90;999.90;;;0.60;99.90;;;;;;4945550;29;20056;-80
2023/04/04 02:36:01;;;;;;;1999.90;999.90;;;1.00;99.90;;;;;;4955997;28;20051;-80
2023/04/04 02:38:27;;;;;;;1999.90;999.90;;;-1.10;99.90;;;;;;4955544;28;20105;-84
2023/04/04 02:40:53;;;;;;;1999.90;999.90;;;2.00;99.90;;;;;;4934073;29;20044;-80
2023/04/04 02:43:19;;;;;;;1999.90;999.90;;;0.60;99.90;;;;;;4934386;29;20086;-80
2023/04/04 02:45:47;;;;;;;1999.90;999.90;;;0.70;99.90;;;;;;4929448;29;20079;-80
2023/04/04 02:48:12;;;;;;;1999.90;999.90;;;0.60;99.90;;;;;;4931486;29;20059;-84
2023/04/04 02:50:38;;;;;;;1999.90;999.90;;;2.90;99.90;;;;;;4927682;29;20068;-79
2023/04/04 02:53:04;;;;;;;1999.90;999.90;;;2.30;99.90;;;;;;4949411;29;20515;-79
2023/04/04 02:55:30;;;;;;;1999.90;999.90;;;1.30;99.90;;;;;;4952341;29;20035;-79
2023/04/04 02:57:56;;;;;;;1999.90;999.90;;;1.90;99.90;;;;;;4956658;28;20091;-79
2023/04/04 03:00:22;;;;;;;1999.90;999.90;;;1.30;99.90;;;;;;4947248;28;20055;-79
2023/04/04 03:02:55;;;;;;;1999.90;999.90;;;1.90;99.90;;;;;;4950082;29;20078;-79
2023/04/04 03:05:23;;;;;;;1999.90;999.90;;;2.50;99.90;;;;;;4936799;29;20055;-80
2023/04/04 03:07:54;;;;;;;1999.90;999.90;;;1.10;99.90;;;;;;4935909;29;20048;-79
2023/04/04 03:10:25;;;;;;;1999.90;999.90;;;-0.50;99.90;;;;;;4937271;29;20044;-79
2023/04/04 03:12:50;;;;;;;1999.90;999.90;;;-0.30;99.90;;;;;;4954629;28;20047;-79
2023/04/04 03:15:16;;;;;;;1999.90;999.90;;;0.40;99.90;;;;;;4956156;28;20054;-84
2023/04/04 03:17:43;;;;;;;1999.90;999.90;;;0.50;99.90;;;;;;4953989;28;20069;-80
2023/04/04 03:20:10;;;;;;;1999.90;999.90;;;-0.80;99.90;;;;;;4948535;28;20056;-80
2023/04/04 03:22:36;;;;;;;1999.90;999.90;;;-0.40;99.90;;;;;;4955687;29;20058;-79
2023/04/04 03:25:02;;;;;;;1999.90;999.90;;;1.80;99.90;;;;;;4941797;28;20043;-79
2023/04/04 03:27:31;;;;;;;1999.90;999.90;;;-0.20;99.90;;;;;;4926156;29;20513;-79
2023/04/04 03:29:58;;;;;;;1999.90;999.90;;;-0.40;99.90;;;;;;4954431;29;20138;-79
2023/04/04 03:32:24;;;;;;;1999.90;999.90;;;-0.30;99.90;;;;;;4951055;28;20054;-79
2023/04/04 03:34:51;;;;;;;1999.90;999.90;;;1.70;99.90;;;;;;4955145;28;20070;-80
2023/04/04 03:37:17;;;;;;;1999.90;999.90;;;-0.60;99.90;;;;;;4948831;28;20378;-80
2023/04/04 03:39:43;;;;;;;1999.90;999.90;;;;;;;;;;4936538;29;20047;-80
2023/04/04 03:42:08;;;;;;;1999.90;999.90;;;-1.80;99.90;;;;;;4944972;29;20043;-80
2023/04/04 03:44:35;;;;;;;1999.90;999.90;;;-1.60;99.90;;;;;;4952361;29;20700;-86
2023/04/04 03:47:01;;;;;;;1999.90;999.90;;;-1.70;99.90;;;;;;4943380;28;20055;-80
2023/04/04 03:49:27;;;;;;;1999.90;999.90;;;-0.20;99.90;;;;;;4935500;29;20204;-78
2023/04/04 03:51:52;;;;;;;1999.90;999.90;;;0.50;99.90;;;;;;4927838;29;20493;-79
2023/04/04 03:54:18;;;;;;;1999.90;999.90;;;-1.80;99.90;;;;;;4924234;29;20058;-82
2023/04/04 03:56:44;;;;;;;1999.90;999.90;;;1.90;99.90;;;;;;4926461;29;20067;-79
2023/04/04 03:59:10;;;;;;;1999.90;999.90;;;1.60;99.90;;;;;;4936852;29;20047;-79
2023/04/04 04:01:35;;;;;;;1999.90;999.90;;;0.20;99.90;;;;;;4932333;29;20055;-79
2023/04/04 04:04:01;;;;;;;1999.90;999.90;;;-0.90;99.90;;;;;;4935839;29;20131;-79
2023/04/04 04:06:26;;;;;;;1999.90;999.90;;;0.30;99.90;;;;;;4928856;29;20052;-79
2023/04/04 04:08:52;;;;;;;1999.90;999.90;;;2.30;99.90;;;;;;4927779;29;20048;-79
2023/04/04 04:11:18;;;;;;;1999.90;999.90;;;2.20;99.90;;;;;;4927982;29;20047;-79
2023/04/04 04:13:44;;;;;;;1999.90;999.90;;;-0.50;99.90;;;;;;4925746;29;20040;-79
2023/04/04 04:16:10;;;;;;;1999.90;999.90;;;1.10;99.90;;;;;;4917096;29;20378;-80
2023/04/04 04:18:36;;;;;;;1999.90;999.90;;;-1.30;99.90;;;;;;4940089;29;20059;-80
2023/04/04 04:21:02;;;;;;;1999.90;999.90;;;0.60;99.90;;;;;;4953424;28;20407;-81
2023/04/04 04:23:31;;;;;;;1999.90;999.90;;;-0.30;99.90;;;;;;4933117;29;20389;-79
2023/04/04 04:25:57;;;;;;;1999.90;999.90;;;2.30;99.90;;;;;;4933122;29;20135;-79
2023/04/04 04:28:23;;;;;;;1999.90;999.90;;;-0.30;99.90;;;;;;4930551;29;20130;-79
2023/04/04 04:30:50;;;;;;;1999.90;999.90;;;-0.20;99.90;;;;;;4925111;29;20047;-79
2023/04/04 04:33:16;;;;;;;1999.90;999.90;;;2.00;99.90;;;;;;4926308;29;20052;-79
2023/04/04 04:35:41;;;;;;;1999.90;999.90;;;-0.40;99.90;;;;;;4925530;29;20067;-79
2023/04/04 04:38:07;;;;;;;1999.90;999.90;;;-1.90;99.90;;;;;;4926080;29;20039;-79
2023/04/04 04:40:33;;;;;;;1999.90;999.90;;;0.10;99.90;;;;;;4928344;29;20115;-78
2023/04/04 04:42:59;;;;;;;1999.90;999.90;;;-0.90;99.90;;;;;;4933562;29;20043;-79
2023/04/04 04:45:25;;;;;;;1999.90;999.90;;;1.50;99.90;;;;;;4929938;29;20086;-81
2023/04/04 04:47:51;;;;;;;1999.90;999.90;;;-0.30;99.90;;;;;;4922667;29;20511;-79
2023/04/04 04:50:17;;;;;;;1999.90;999.90;;;-1.50;99.90;;;;;;4929477;29;20046;-79
2023/04/04 04:52:43;;;;;;;1999.90;999.90;;;0.30;99.90;;;;;;4930767;29;20404;-79
2023/04/04 04:55:11;;;;;;;1999.90;999.90;;;0.50;99.90;;;;;;4924249;29;20053;-81
2023/04/04 04:57:37;;;;;;;1999.90;999.90;;;0.60;99.90;;;;;;4934461;29;21817;-79
2023/04/04 05:00:04;;;;;;;1999.90;999.90;;;-0.30;99.90;;;;;;4946934;28;20503;-79
2023/04/04 05:02:30;;;;;;;1999.90;999.90;;;-0.70;99.90;;;;;;4949788;28;20511;-79
2023/04/04 05:04:56;;;;;;;1999.90;999.90;;;1.50;99.90;;;;;;4948845;29;20071;-79
2023/04/04 05:07:22;;;;;;;1999.90;999.90;;;0.70;99.90;;;;;;4932227;28;20489;-84
2023/04/04 05:09:49;;;;;;;1999.90;999.90;;;1.50;99.90;;;;;;4924246;29;20130;-80
2023/04/04 05:12:15;;;;;;;1999.90;999.90;;;1.40;99.90;;;;;;4931167;29;20048;-80
2023/04/04 05:14:40;;;;;;;1999.90;999.90;;;-0.90;99.90;;;;;;4932233;29;20055;-79
2023/04/04 05:17:06;;;;;;;1999.90;999.90;;;1.80;99.90;;;;;;4936198;29;20058;-79
2023/04/04 05:19:32;;;;;;;1999.90;999.90;;;0.40;99.90;;;;;;4949663;28;20114;-80
2023/04/04 05:21:58;;;;;;;1999.90;999.90;;;1.90;99.90;;;;;;4929258;29;20046;-79
2023/04/04 05:24:24;;;;;;;1999.90;999.90;;;-0.90;99.90;;;;;;4932305;29;20177;-80
2023/04/04 05:26:50;;;;;;;1999.90;999.90;;;2.30;99.90;;;;;;4932686;29;20044;-79
2023/04/04 05:29:15;;;;;;;1999.90;999.90;;;-0.70;99.90;;;;;;4943873;29;20055;-82
2023/04/04 05:31:41;;;;;;;1999.90;999.90;;;0.80;99.90;;;;;;4930484;29;20461;-82
2023/04/04 05:34:07;;;;;;;1999.90;999.90;;;2.40;99.90;;;;;;4954688;29;20054;-81
2023/04/04 05:36:36;;;;;;;1999.90;999.90;;;0.50;99.90;;;;;;4953899;28;20134;-81
2023/04/04 05:39:05;;;;;;;1999.90;999.90;;;0.50;99.90;;;;;;4936764;29;20066;-81
2023/04/04 05:41:31;;;;;;;1999.90;999.90;;;-1.50;99.90;;;;;;4926831;29;20060;-85
2023/04/04 05:43:57;;;;;;;1999.90;999.90;;;-0.40;99.90;;;;;;4938686;29;20043;-82
2023/04/04 05:46:22;;;;;;;1999.90;999.90;;;-0.30;99.90;;;;;;4941324;29;20047;-82
2023/04/04 05:48:51;;;;;;;1999.90;999.90;;;-0.10;99.90;;;;;;4944948;29;20057;-82
2023/04/04 05:51:17;;;;;;;1999.90;999.90;;;0.10;99.90;;;;;;4952987;29;20062;-81
2023/04/04 05:53:46;;;;;;;1999.90;999.90;;;0.40;99.90;;;;;;4954332;28;20086;-81
2023/04/04 05:56:12;;;;;;;1999.90;999.90;;;-0.60;99.90;;;;;;4941604;28;20051;-81
2023/04/04 05:58:38;;;;;;;1999.90;999.90;;;-0.30;99.90;;;;;;4935485;29;20099;-80
2023/04/04 06:01:10;;;;;;;1999.90;999.90;;;1.20;99.90;;;;;;4927772;29;20515;-85
2023/04/04 06:03:36;;;;;;;1999.90;999.90;;;0.40;99.90;;;;;;4943587;29;20054;-82
2023/04/04 06:06:03;;;;;;;1999.90;999.90;;;3.00;99.90;;;;;;4927970;29;20051;-82
2023/04/04 06:08:30;;;;;;;1999.90;999.90;;;0.40;99.90;;;;;;4952799;29;20086;-81
2023/04/04 06:10:55;;;;;;;1999.90;999.90;;;-0.10;99.90;;;;;;4952469;28;20047;-81
2023/04/04 06:13:21;;;;;;;1999.90;999.90;;;1.10;99.90;;;;;;4954568;29;20061;-82
2023/04/04 06:15:47;;;;;;;1999.90;999.90;;;1.60;99.90;;;;;;4954964;29;20054;-81
2023/04/04 06:18:12;;;;;;;1999.90;999.90;;;-0.60;99.90;;;;;;4944677;29;20089;-81
2023/04/04 06:20:39;;;;;;;1999.90;999.90;;;;;;;;;;4936827;29;20126;-82
2023/04/04 06:23:05;;;;;;;1999.90;999.90;;;1.20;99.90;;;;;;4946280;28;20055;-85
2023/04/04 06:25:31;;;;;;;1999.90;999.90;;;-0.50;99.90;;;;;;4912899;29;20394;-82
2023/04/04 06:27:58;;;;;;;1999.90;999.90;;;1.20;99.90;;;;;;4929345;29;20076;-85
2023/04/04 06:30:24;;;;;;;1999.90;999.90;;;1.00;99.90;;;;;;4933864;29;20055;-82
2023/04/04 06:32:49;;;;;;;1999.90;999.90;;;0.80;99.90;;;;;;4953823;28;20051;-86
2023/04/04 06:35:15;;;;;;;1999.90;999.90;;;2.60;99.90;;;;;;4950839;29;20062;-82
2023/04/04 06:37:41;;;;;;;1999.90;999.90;;;-0.60;99.90;;;;;;4954550;29;20047;-81
2023/04/04 06:40:07;;;;;;;1999.90;999.90;;;3.50;99.90;;;;;;4929325;29;20169;-82
2023/04/04 06:42:33;;;;;;;1999.90;999.90;;;1.00;99.90;;;;;;4950916;29;20050;-82
2023/04/04 06:44:59;;;;;;;1999.90;999.90;;;2.60;99.90;;;;;;4934955;28;20409;-81
2023/04/04 06:47:24;;;;;;;1999.90;999.90;;;2.60;99.90;;;;;;4933802;29;20058;-82
2023/04/04 06:49:51;;;;;;;1999.90;999.90;;;1.50;99.90;;;;;;4934914;29;20054;-81
2023/04/04 06:52:17;;;;;;;1999.90;999.90;;;2.40;99.90;;;;;;4945972;28;20492;-81
2023/04/04 06:54:43;;;;;;;1999.90;999.90;;;-0.30;99.90;;;;;;4940563;29;20074;-81
2023/04/04 06:57:09;;;;;;;1999.90;999.90;;;1.40;99.90;;;;;;4937504;29;20047;-82
2023/04/04 06:59:35;;;;;;;1999.90;999.90;;;1.60;99.90;;;;;;4941199;28;20125;-81
2023/04/04 07:02:00;;;;;;;1999.90;999.90;;;1.60;99.90;;;;;;4948442;29;20452;-81
2023/04/04 07:04:26;;;;;;;1999.90;999.90;;;1.70;99.90;;;;;;4939642;28;20061;-81
2023/04/04 07:06:52;;;;;;;1999.90;999.90;;;1.70;99.90;;;;;;4953582;29;20047;-82
2023/04/04 07:09:17;;;;;;;1999.90;999.90;;;2.10;99.90;;;;;;4949859;29;20166;-81
2023/04/04 07:11:43;;;;;;;1999.90;999.90;;;1.30;99.90;;;;;;4952180;29;20463;-83
2023/04/04 07:14:09;;;;;;;1999.90;999.90;;;2.60;99.90;;;;;;4941662;29;20047;-81
2023/04/04 07:16:35;;;;;;;1999.90;665.13;;;2.20;99.90;;;;;;4944774;29;20143;-81
2023/04/04 07:19:01;;;;;;;1999.90;999.90;;;1.80;99.90;;;;;;4956525;28;20567;-82
2023/04/04 07:21:27;;;;;;;1999.90;999.90;;;3.20;99.90;;;;;;4947660;28;20059;-81
2023/04/04 07:23:53;;;;;;;1999.90;999.90;;;4.00;99.90;;;;;;4945145;28;20091;-81
2023/04/04 07:26:20;;;;;;;1999.90;999.90;;;5.00;99.90;;;;;;4944648;29;20078;-81
2023/04/04 07:28:45;;;;;;;1999.90;999.90;;;3.00;99.90;;;;;;4953560;28;20043;-81
2023/04/04 07:31:13;;;;;;;1999.90;999.90;;;3.50;99.90;;;;;;4935167;29;20059;-81
2023/04/04 07:33:39;;;;;;;1999.90;999.90;;;4.00;99.90;;;;;;4948158;29;20058;-83
2023/04/04 07:36:05;;;;;;;1705.80;578.70;;;4.80;99.90;;;;;;4924426;29;20511;-82
2023/04/04 07:38:31;;;;;;;1999.90;848.78;;;3.30;99.90;;;;;;4935375;29;20051;-81
2023/04/04 07:40:56;;;;;;;1999.90;999.90;;;6.60;99.90;;;;;;4927275;29;20040;-81
2023/04/04 07:43:22;;;;;;;1999.90;999.90;;;6.90;99.90;;;;;;4918856;29;20453;-81
2023/04/04 07:45:48;;;;;;;1999.90;999.90;;;11.10;90.90;;;;;;4922188;29;20051;-82
2023/04/04 07:48:14;;;;;;;1999.90;999.90;;;9.60;61.30;;;;;;4925662;29;20070;-82
2023/04/04 07:50:40;;;;;;;1999.90;944.28;;;10.60;72.50;;;;;;4943122;29;20051;-82
2023/04/04 07:53:06;;;;;;;1999.90;994.47;;;12.10;42.60;;;;;;4946517;28;20055;-81
2023/04/04 07:55:31;;;;;;;1999.90;707.75;;;13.30;23.30;;;;;;4954992;28;20066;-82
2023/04/04 07:57:57;;;;;;;1999.90;999.90;;;13.80;1.00;;;;;;4943822;29;20489;-82
2023/04/04 08:00:25;;;;;;;1999.90;999.90;;;13.40;1.00;;;;;;4949102;29;20484;-82
2023/04/04 08:02:55;;;;;;;1999.90;999.90;;;14.10;1.00;;;;;;4946764;28;20055;-83
2023/04/04 08:05:20;;;;;;;1999.90;999.90;;;14.90;1.00;;;;;;4949228;29;20055;-83
2023/04/04 08:07:46;;;;;;;1999.90;999.90;;;15.40;1.00;;;;;;4945087;29;20054;-82
2023/04/04 08:10:12;;;;;;;1999.90;999.90;;;16.20;1.00;;;;;;4934655;28;20124;-83
2023/04/04 08:12:38;;;;;;;1999.90;999.90;;;16.80;1.00;;;;;;4932858;29;20448;-87
2023/04/04 08:15:04;;;;;;;1999.90;999.90;;;16.80;1.00;;;;;;4916095;29;20068;-83
2023/04/04 08:17:30;;;;;;;1999.90;999.90;;;15.70;1.00;;;;;;4945401;29;20078;-83
2023/04/04 08:19:56;;;;;;;1999.90;999.90;;;16.30;1.00;;;;;;4929910;29;20465;-83
2023/04/04 08:22:22;;;;;;;1999.90;999.90;;;16.40;1.00;;;;;;4928759;29;20533;-83
2023/04/04 08:24:48;;;;;;;1999.90;995.30;;;16.80;1.00;;;;;;4926808;29;20055;-84
2023/04/04 08:27:16;;;;;;;1999.90;999.90;;;17.20;1.00;;;;;;4948959;28;20225;-82
2023/04/04 08:29:42;;;;;;;1999.90;979.72;;;18.00;1.00;;;;;;4945465;29;20079;-82
2023/04/04 08:32:08;;;;;;;1999.90;999.90;;;18.60;1.00;;;;;;4951328;29;20385;-82
2023/04/04 08:34:34;;;;;;;1999.90;444.77;;;19.20;1.00;;;;;;4950752;28;20043;-82
2023/04/04 08:36:59;;;;;;;1999.90;609.38;;;18.20;1.00;;;;;;4939731;29;20083;-82
2023/04/04 08:39:26;;;;;;;1999.90;999.90;;;17.40;1.00;;;;;;4946066;29;20063;-83
2023/04/04 08:42:15;;;;;;;1999.90;999.90;;;16.70;1.00;;;;;;4944333;28;20115;-87
2023/04/04 08:44:44;;;;;;;1655.60;785.47;;;17.30;1.00;;;;;;4944506;28;20066;-82
2023/04/04 08:47:12;;;;;;;1999.90;999.90;;;16.20;1.00;;;;;;4948863;28;20055;-82
2023/04/04 08:49:43;;;;;;;1999.90;817.33;;;16.60;1.00;;;;;;4942295;29;20098;-82
2023/04/04 08:52:11;;;;;;;1773.70;385.60;;;15.70;1.00;;;;;;4947894;28;20047;-82
2023/04/04 08:54:39;;;;;;;1999.90;858.35;;;15.40;1.00;;;;;;4948079;28;20527;-82
2023/04/04 08:57:07;;;;;;;1999.90;620.35;;;16.00;1.00;;;;;;4937279;28;20054;-82
2023/04/04 08:59:32;;;;;;;;;;;16.00;1.00;;;;;;4947744;29;20055;-82
2023/04/04 09:02:07;;;;;;;1999.90;999.90;;;17.30;1.00;;;;;;4947193;29;19930;-82
2023/04/04 09:04:32;;;;;;;1951.30;817.30;;;18.60;1.00;;;;;;4934878;29;20074;-83
2023/04/04 09:07:03;;;;;;;1999.90;999.90;;;19.50;1.00;;;;;;4923650;29;20477;-83
2023/04/04 09:09:31;;;;;;;1999.90;999.90;;;19.40;1.00;;;;;;4952281;28;20051;-82
2023/04/04 09:11:59;;;;;;;1999.90;999.90;;;19.40;1.00;;;;;;4939755;28;20519;-82
2023/04/04 09:14:26;;;;;;;1999.90;999.90;;;18.50;1.00;;;;;;4938037;29;20051;-82
2023/04/04 09:16:54;;;;;;;1999.90;999.90;;;18.90;1.00;;;;;;4945382;28;20039;-85
2023/04/04 09:19:20;;;;;;;1320.53;391.27;;;17.80;1.00;;;;;;4934765;29;20192;-83
2023/04/04 09:21:47;;;;;;;1999.90;999.90;;;18.30;1.00;;;;;;4932421;29;20051;-83
2023/04/04 09:24:14;;;;;;;1999.90;999.90;;;18.70;1.00;;;;;;4948646;28;20055;-83
2023/04/04 09:26:50;;;;;;;1999.90;999.90;;;18.00;1.00;;;;;;4945924;29;20531;-82
2023/04/04 09:29:20;;;;;;;1999.90;999.90;;;18.20;1.00;;;;;;4924820;29;20624;-84
2023/04/04 09:31:48;;;;;;;1999.90;999.90;;;18.20;1.00;;;;;;4926449;29;20051;-83
2023/04/04 09:34:18;;;;;;;1999.90;999.90;;;19.10;1.00;;;;;;4954152;28;20055;-82
2023/04/04 09:36:45;;;;;;;1139.60;99.35;;;19.70;1.00;;;;;;4938564;28;20086;-82
2023/04/04 09:39:15;;;;;;;1999.90;999.90;;;20.40;1.00;;;;;;4933627;29;20063;-82
2023/04/04 09:41:41;;;;;;;1999.90;999.90;;;21.00;1.00;;;;;;4930404;29;20064;-84
2023/04/04 09:44:09;;;;;;;1627.47;777.08;;;21.50;1.00;;;;;;4940861;29;20044;-82
2023/04/04 09:46:36;;;;;;;1999.90;999.90;;;21.80;1.00;;;;;;4932524;29;20048;-83
2023/04/04 09:49:03;;;;;;;1999.90;999.90;;;22.20;1.00;;;;;;4934321;29;20066;-83
2023/04/04 09:51:35;;;;;;;1999.90;999.90;;;22.60;1.00;;;;;;4946597;28;20050;-82
2023/04/04 09:54:01;;;;;;;1999.90;999.90;;;21.90;1.00;;;;;;4937624;29;20055;-83
2023/04/04 09:56:27;;;;;;;1999.90;999.90;;;21.20;1.00;;;;;;4938461;29;20059;-84
2023/04/04 09:58:53;;;;;;;1999.90;999.90;;;21.40;1.00;;;;;;4946852;29;20043;-83
2023/04/04 10:01:19;;;;;;;1999.90;999.90;;;21.80;1.00;;;;;;4957456;28;20428;-83
2023/04/04 10:03:53;;;;;;;1999.90;999.90;;;22.40;1.00;;;;;;4921581;29;20052;-86
2023/04/04 10:06:20;;;;;;;1999.90;999.90;;;22.90;1.00;;;;;;4923916;29;20055;-82
2023/04/04 10:08:47;;;;;;;1999.90;999.90;;;23.20;1.00;;;;;;4928682;29;20048;-83
2023/04/04 10:11:25;;;;;;;1999.90;999.90;;;22.60;1.00;;;;;;4943126;28;20326;-83
2023/04/04 10:13:51;;;;;;;1999.90;999.90;;;23.10;1.00;;;;;;4944602;29;20299;-82
2023/04/04 10:16:17;;;;;;;1999.90;999.90;;;22.50;1.00;;;;;;4932519;29;20042;-84
2023/04/04 10:18:43;;;;;;;1999.90;999.90;;;23.10;1.00;;;;;;4938941;29;20086;-83
2023/04/04 10:21:09;;;;;;;1999.90;999.90;;;23.70;1.00;;;;;;4933778;29;20047;-83
2023/04/04 10:23:35;;;;;;;1999.90;999.90;;;22.90;1.00;;;;;;4936327;29;20488;-83
2023/04/04 10:26:01;;;;;;;1999.90;999.90;;;23.40;1.00;;;;;;4934921;28;20055;-83
2023/04/04 10:28:27;;;;;;;1999.90;999.90;;;21.50;1.00;;;;;;4939322;29;20361;-83
2023/04/04 10:31:21;;;;;;;1999.90;999.90;;;21.70;1.00;;;;;;4930357;29;20472;-84
2023/04/04 10:34:13;;;;;;;1999.90;999.90;;;22.00;1.00;;;;;;4933668;29;20043;-83
2023/04/04 10:36:52;;;;;;;1999.90;999.90;;;22.50;1.00;;;;;;4940346;29;20039;-84
2023/04/04 10:39:44;;;;;;;1999.90;999.90;;;22.90;1.00;;;;;;4941376;29;20095;-83
2023/04/04 10:42:11;;;;;;;1999.90;999.90;;;23.50;1.00;;;;;;4935577;29;20062;-83
2023/04/04 10:44:40;;;;;;;1999.90;999.90;;;23.30;1.00;;;;;;4936113;29;20471;-83
2023/04/04 10:47:21;;;;;;;1999.90;999.90;;;23.40;1.00;;;;;;4942282;29;20054;-84
2023/04/04 10:49:48;;;;;;;1999.90;999.90;;;23.60;1.00;;;;;;4940991;29;20043;-84
2023/04/04 10:52:17;;;;;;;1589.88;384.98;;;22.80;1.00;;;;;;4936332;28;20392;-83
2023/04/04 10:54:43;;;;;;;1999.90;999.90;;;22.80;1.00;;;;;;4934298;29;20044;-83
2023/04/04 10:57:10;;;;;;;1999.90;999.90;;;22.90;1.00;;;;;;4939462;28;20074;-83
2023/04/04 11:00:05;;;;;;;1999.90;999.90;;;22.50;1.00;;;;;;4941200;28;20090;-83
2023/04/04 11:02:52;;;;;;;1692.13;773.97;;;22.10;1.00;;;;;;4941970;29;20056;-83
2023/04/04 11:05:19;;;;;;;1999.90;999.90;;;22.10;1.00;;;;;;4938037;29;20046;-83
2023/04/04 11:07:45;;;;;;;1999.90;999.90;;;21.70;1.00;;;;;;4937673;29;20047;-83
2023/04/04 11:10:19;;;;;;;1999.90;999.90;;;21.70;1.00;;;;;;4932522;28;20511;-83
2023/04/04 11:12:46;;;;;;;1999.90;999.90;;;21.50;1.00;;;;;;4938239;29;20039;-83
2023/04/04 11:15:13;;;;;;;1999.90;999.90;;;21.60;1.00;;;;;;4931071;28;20072;-83
2023/04/04 11:17:49;;;;;;;1999.90;999.90;;;20.70;1.00;;;;;;4952651;29;20492;-82
2023/04/04 11:20:23;;;;;;;1999.90;999.90;;;20.60;1.00;;;;;;4953537;28;20047;-83
2023/04/04 11:23:02;;;;;;;1999.90;999.90;;;20.60;1.00;;;;;;4934557;29;20048;-87
2023/04/04 11:25:30;;;;;;;1514.55;568.97;;;20.60;1.00;;;;;;4917742;29;20059;-84
2023/04/04 11:27:57;;;;;;;1999.90;999.90;;;20.40;1.00;;;;;;4947563;29;20043;-83
2023/04/04 11:30:24;;;;;;;1999.90;999.90;;;19.60;1.00;;;;;;4950185;28;20035;-82
2023/04/04 11:32:50;;;;;;;1999.90;999.90;;;18.70;1.00;;;;;;4954938;29;20054;-83
2023/04/04 11:35:16;;;;;;;1999.90;525.90;;;18.50;1.00;;;;;;4950005;28;20062;-82
2023/04/04 11:37:58;;;;;;;1999.90;298.45;;;18.20;1.00;;;;;;4940495;29;20488;-83
2023/04/04 11:40:40;;;;;;;1999.90;999.90;;;18.70;1.00;;;;;;4946507;29;20126;-83
2023/04/04 11:43:08;;;;;;;1999.90;999.90;;;18.90;1.00;;;;;;4928985;29;20066;-83
2023/04/04 11:45:35;;;;;;;1999.90;999.90;;;19.10;1.00;;;;;;4929643;29;20099;-83
2023/04/04 11:48:03;;;;;;;1999.90;999.90;;;19.90;1.00;;;;;;4943305;29;20118;-83
2023/04/04 11:50:37;;;;;;;1999.90;999.90;;;20.20;1.00;;;;;;4950164;28;20043;-85
2023/04/04 11:53:09;;;;;;;1999.90;999.90;;;19.40;1.00;;;;;;4951545;28;20051;-83
2023/04/04 11:55:42;;;;;;;1999.90;999.90;;;19.70;1.00;;;;;;4945402;29;20062;-83
2023/04/04 11:58:10;;;;;;;1999.90;999.90;;;20.20;1.00;;;;;;4938655;28;20540;-87
2023/04/04 12:00:36;;;;;;;;;;;20.50;1.00;;;;;;4947357;29;20054;-85
2023/04/04 12:03:10;;;;;;;1999.90;999.90;;;20.60;1.00;;;;;;4932862;29;20075;-84
2023/04/04 12:05:41;;;;;;;1999.90;999.90;;;20.70;1.00;;;;;;4929610;29;20040;-83
2023/04/04 12:08:09;;;;;;;1999.90;999.90;;;20.80;1.00;;;;;;4908958;29;20048;-83
2023/04/04 12:10:36;;;;;;;;;;;20.60;1.00;;;;;;4935085;29;20255;-83